Time;durP1;ratioP1;P1;durP2;ratioP2;P2;SDS_P1;SDS_P2;PMS_P1;PMS_P2;Temp;Humidity;BMP_temperature;BMP_pressure;BME280_temperature;BME280_humidity;BME280_pressure;Samples;Min_cycle;Max_cycle;Signal;HPM_P1;HPM_P2
2023/07/27 00:01:35;;;;;;;10.73;5.72;;;12.30;99.90;;;;;;5117392;27;20057;-82
2023/07/27 00:04:01;;;;;;;9.63;5.20;;;12.20;99.90;;;;;;5079710;27;20118;-82
2023/07/27 00:06:26;;;;;;;12.25;5.35;;;12.20;99.90;;;;;;5129189;27;20148;-82
2023/07/27 00:08:52;;;;;;;8.10;4.70;;;12.20;99.90;;;;;;5088872;27;20406;-82
2023/07/27 00:11:18;;;;;;;9.85;4.95;;;12.30;99.90;;;;;;5086939;27;20032;-82
2023/07/27 00:13:43;;;;;;;8.32;5.15;;;12.20;99.90;;;;;;5096117;27;20072;-82
2023/07/27 00:16:11;;;;;;;8.18;5.05;;;12.20;99.90;;;;;;5093988;27;20237;-82
2023/07/27 00:18:37;;;;;;;9.13;5.88;;;12.30;99.90;;;;;;5103406;27;20124;-82
2023/07/27 00:21:02;;;;;;;9.07;5.22;;;12.30;99.90;;;;;;5105408;27;20444;-82
2023/07/27 00:23:28;;;;;;;8.63;5.15;;;12.20;99.90;;;;;;5111641;27;20176;-82
2023/07/27 00:25:54;;;;;;;8.52;5.32;;;12.20;99.90;;;;;;5109387;27;20473;-82
2023/07/27 00:28:19;;;;;;;9.85;5.28;;;12.20;99.90;;;;;;5130233;27;20490;-82
2023/07/27 00:30:55;;;;;;;8.43;5.05;;;12.20;99.90;;;;;;5111260;27;20050;-84
2023/07/27 00:33:23;;;;;;;9.13;5.45;;;12.20;99.90;;;;;;5097693;27;20476;-82
2023/07/27 00:35:57;;;;;;;7.55;4.78;;;12.20;99.90;;;;;;5076501;27;20047;-82
2023/07/27 00:38:23;;;;;;;9.05;5.10;;;12.20;99.90;;;;;;5101178;27;20086;-82
2023/07/27 00:40:49;;;;;;;9.90;5.20;;;12.20;99.90;;;;;;5115264;27;20208;-82
2023/07/27 00:43:15;;;;;;;13.52;5.97;;;12.20;99.90;;;;;;5093413;27;20039;-82
2023/07/27 00:45:41;;;;;;;9.80;5.32;;;12.20;99.90;;;;;;5115459;27;20199;-82
2023/07/27 00:48:08;;;;;;;11.35;5.43;;;12.20;99.90;;;;;;5086890;27;20118;-82
2023/07/27 00:50:37;;;;;;;9.27;5.35;;;12.20;99.90;;;;;;5087576;27;20039;-82
2023/07/27 00:53:05;;;;;;;10.30;5.75;;;12.20;99.90;;;;;;5134728;27;20035;-82
2023/07/27 00:55:31;;;;;;;8.52;5.20;;;12.30;99.90;;;;;;5111143;27;20126;-82
2023/07/27 00:57:58;;;;;;;11.52;5.07;;;12.20;99.90;;;;;;5112932;27;20184;-82
2023/07/27 01:00:27;;;;;;;8.65;5.50;;;12.20;99.90;;;;;;5108191;27;20109;-82
2023/07/27 01:02:53;;;;;;;9.30;5.55;;;12.30;99.90;;;;;;5099058;27;20173;-82
2023/07/27 01:05:19;;;;;;;7.10;5.00;;;12.30;99.90;;;;;;5119114;27;20050;-82
2023/07/27 01:07:45;;;;;;;7.75;5.10;;;12.40;99.90;;;;;;5112735;27;20108;-82
2023/07/27 01:10:11;;;;;;;8.77;5.18;;;12.40;99.90;;;;;;5085350;27;20070;-82
2023/07/27 01:13:12;;;;;;;9.25;5.18;;;12.40;99.90;;;;;;5103450;27;20406;-82
2023/07/27 01:15:43;;;;;;;10.55;5.15;;;12.30;99.90;;;;;;5107119;27;20461;-82
2023/07/27 01:18:23;;;;;;;9.73;5.40;;;12.40;99.90;;;;;;5129336;27;20532;-82
2023/07/27 01:21:11;;;;;;;10.25;5.10;;;12.40;99.90;;;;;;5087485;27;20472;-82
2023/07/27 01:23:58;;;;;;;8.55;5.18;;;12.40;99.90;;;;;;5086677;27;20544;-82
2023/07/27 01:26:53;;;;;;;9.15;5.57;;;12.50;99.90;;;;;;5086618;27;20041;-81
2023/07/27 01:29:47;;;;;;;7.85;4.90;;;12.50;99.90;;;;;;5127583;27;20039;-82
2023/07/27 01:32:15;;;;;;;10.40;5.20;;;12.50;99.90;;;;;;5106284;27;20039;-82
2023/07/27 01:34:45;;;;;;;8.77;5.00;;;12.50;99.90;;;;;;5119383;27;20059;-82
2023/07/27 01:37:15;;;;;;;8.32;5.28;;;12.50;99.90;;;;;;5116016;27;20065;-82
2023/07/27 01:39:47;;;;;;;7.75;5.20;;;12.50;99.90;;;;;;5111935;27;20046;-82
2023/07/27 01:42:13;;;;;;;9.50;4.60;;;12.60;99.90;;;;;;5089729;27;20137;-82
2023/07/27 01:44:40;;;;;;;8.55;5.38;;;12.60;99.90;;;;;;5105166;27;20130;-82
2023/07/27 01:47:07;;;;;;;10.85;5.15;;;12.60;99.90;;;;;;5107915;27;20512;-82
2023/07/27 01:49:36;;;;;;;9.45;4.97;;;12.60;99.90;;;;;;5105532;27;20035;-82
2023/07/27 01:52:04;;;;;;;9.70;5.57;;;12.60;99.90;;;;;;5094175;27;20146;-82
2023/07/27 01:54:31;;;;;;;9.63;5.45;;;12.60;99.90;;;;;;5084560;27;20048;-82
2023/07/27 01:57:00;;;;;;;9.05;5.00;;;12.60;99.90;;;;;;5088102;27;20503;-82
2023/07/27 01:59:27;;;;;;;10.20;4.95;;;12.60;99.90;;;;;;5103135;27;20519;-82
2023/07/27 02:01:53;;;;;;;8.02;4.68;;;12.60;99.90;;;;;;5120513;27;20150;-82
2023/07/27 02:04:19;;;;;;;11.18;5.75;;;12.60;99.90;;;;;;5093009;27;20043;-81
2023/07/27 02:06:51;;;;;;;9.48;4.68;;;12.60;99.90;;;;;;5102153;27;20046;-82
2023/07/27 02:09:17;;;;;;;8.40;5.13;;;12.60;99.90;;;;;;5104908;27;20496;-81
2023/07/27 02:11:45;;;;;;;6.80;4.38;;;12.60;99.90;;;;;;5113116;27;20141;-82
2023/07/27 02:14:35;;;;;;;8.65;5.03;;;12.60;99.90;;;;;;5094551;27;20490;-82
2023/07/27 02:17:09;;;;;;;8.50;4.60;;;12.60;99.90;;;;;;5087966;27;20047;-82
2023/07/27 02:19:38;;;;;;;7.15;4.82;;;12.60;99.90;;;;;;5120621;27;20493;-81
2023/07/27 02:22:06;;;;;;;11.25;5.80;;;12.70;99.90;;;;;;5108203;27;20042;-82
2023/07/27 02:24:33;;;;;;;11.35;4.72;;;12.70;99.90;;;;;;5126299;27;20505;-81
2023/07/27 02:26:58;;;;;;;7.40;4.63;;;12.70;99.90;;;;;;5107389;27;20512;-82
2023/07/27 02:29:24;;;;;;;7.93;5.00;;;12.70;99.90;;;;;;5111253;27;20047;-82
2023/07/27 02:31:50;;;;;;;9.50;5.15;;;12.70;99.90;;;;;;5102387;27;20042;-82
2023/07/27 02:34:15;;;;;;;7.95;4.40;;;12.80;99.90;;;;;;5088898;27;20415;-82
2023/07/27 02:36:41;;;;;;;7.65;5.00;;;12.80;99.90;;;;;;5093277;27;20042;-82
2023/07/27 02:39:09;;;;;;;9.23;4.65;;;12.80;99.90;;;;;;5087358;27;20035;-82
2023/07/27 02:41:35;;;;;;;8.65;4.97;;;12.80;99.90;;;;;;5095290;27;20034;-82
2023/07/27 02:44:01;;;;;;;8.75;4.30;;;12.90;99.90;;;;;;5082447;27;20051;-82
2023/07/27 02:46:26;;;;;;;8.68;5.32;;;12.90;99.90;;;;;;5090875;27;20108;-82
2023/07/27 02:48:53;;;;;;;11.20;5.20;;;12.90;99.90;;;;;;5101209;27;20035;-82
2023/07/27 02:51:19;;;;;;;8.30;4.90;;;13.00;99.90;;;;;;5092014;27;20032;-82
2023/07/27 02:53:44;;;;;;;7.65;4.70;;;13.10;99.90;;;;;;5106958;27;20118;-82
2023/07/27 02:56:13;;;;;;;10.73;5.45;;;13.10;99.90;;;;;;5086465;27;20036;-82
2023/07/27 02:58:38;;;;;;;8.20;4.65;;;13.10;99.90;;;;;;5093766;27;20194;-82
2023/07/27 03:01:04;;;;;;;7.93;4.93;;;13.10;99.90;;;;;;5097046;27;20034;-82
2023/07/27 03:03:30;;;;;;;7.97;4.97;;;13.20;99.90;;;;;;5095232;27;20475;-82
2023/07/27 03:06:00;;;;;;;8.90;5.10;;;13.20;99.90;;;;;;5096856;27;20046;-82
2023/07/27 03:08:27;;;;;;;8.65;4.88;;;13.20;99.90;;;;;;5111588;27;20046;-82
2023/07/27 03:11:11;;;;;;;11.95;5.13;;;13.30;99.90;;;;;;5084416;28;20036;-82
2023/07/27 03:13:36;;;;;;;8.00;4.60;;;13.30;99.90;;;;;;5101887;27;20139;-82
2023/07/27 03:16:03;;;;;;;6.60;4.95;;;13.30;99.90;;;;;;5085759;27;20027;-82
2023/07/27 03:18:29;;;;;;;7.75;5.13;;;13.40;99.90;;;;;;5083047;28;20405;-82
2023/07/27 03:20:55;;;;;;;7.18;5.00;;;13.30;99.90;;;;;;5098320;28;20121;-82
2023/07/27 03:23:21;;;;;;;9.95;5.55;;;13.40;99.90;;;;;;5095937;28;20043;-82
2023/07/27 03:25:46;;;;;;;8.80;5.53;;;13.30;99.90;;;;;;5103779;28;20120;-82
2023/07/27 03:28:12;;;;;;;8.70;5.03;;;13.40;99.90;;;;;;5084768;28;20088;-82
2023/07/27 03:30:38;;;;;;;7.22;4.72;;;13.30;99.90;;;;;;5105121;28;20039;-82
2023/07/27 03:33:05;;;;;;;9.88;5.75;;;13.30;99.90;;;;;;5077738;28;20328;-82
2023/07/27 03:35:32;;;;;;;7.70;4.65;;;13.30;99.90;;;;;;5097402;28;20036;-82
2023/07/27 03:37:57;;;;;;;9.00;5.28;;;13.30;99.90;;;;;;5099953;28;20043;-82
2023/07/27 03:40:23;;;;;;;8.27;5.35;;;13.30;99.90;;;;;;5106209;28;20376;-82
2023/07/27 03:42:49;;;;;;;8.73;5.25;;;13.30;99.90;;;;;;5112993;28;20051;-81
2023/07/27 03:45:18;;;;;;;10.52;6.15;;;13.30;99.90;;;;;;5101038;28;20044;-82
2023/07/27 03:47:45;;;;;;;8.93;5.80;;;13.40;99.90;;;;;;5100214;27;20388;-82
2023/07/27 03:50:11;;;;;;;12.05;5.28;;;13.40;99.90;;;;;;5096803;27;20700;-82
2023/07/27 03:52:38;;;;;;;9.65;5.47;;;13.40;99.90;;;;;;5095225;27;20422;-82
2023/07/27 03:55:03;;;;;;;7.70;5.43;;;13.40;99.90;;;;;;5115570;27;20040;-82
2023/07/27 03:57:29;;;;;;;9.15;5.47;;;13.40;99.90;;;;;;5106785;27;20520;-82
2023/07/27 03:59:56;;;;;;;8.32;5.53;;;13.50;99.90;;;;;;5099075;27;20123;-82
2023/07/27 04:02:25;;;;;;;10.52;5.75;;;13.50;99.90;;;;;;5103416;27;20036;-82
2023/07/27 04:04:51;;;;;;;9.10;5.90;;;13.50;99.90;;;;;;5089387;27;20046;-82
2023/07/27 04:07:18;;;;;;;10.32;6.20;;;13.50;99.90;;;;;;5108558;27;20050;-82
2023/07/27 04:09:44;;;;;;;8.15;5.65;;;13.50;99.90;;;;;;5097870;27;20060;-82
2023/07/27 04:12:13;;;;;;;10.07;6.10;;;13.60;99.90;;;;;;5100545;27;20027;-83
2023/07/27 04:14:39;;;;;;;10.32;5.88;;;13.60;99.90;;;;;;5092373;27;20390;-82
2023/07/27 04:17:05;;;;;;;9.00;5.68;;;13.60;99.90;;;;;;5101671;27;20482;-83
2023/07/27 04:19:35;;;;;;;10.07;6.47;;;13.60;99.90;;;;;;5080634;27;20144;-83
2023/07/27 04:22:01;;;;;;;9.70;6.30;;;13.60;99.90;;;;;;5090403;27;20075;-83
2023/07/27 04:24:27;;;;;;;12.90;7.30;;;13.60;99.90;;;;;;5096868;27;20120;-83
2023/07/27 04:26:53;;;;;;;9.80;6.32;;;13.70;99.90;;;;;;5105630;27;20046;-84
2023/07/27 04:29:18;;;;;;;12.25;6.72;;;13.70;99.90;;;;;;5107767;27;20039;-84
2023/07/27 04:31:44;;;;;;;8.95;6.45;;;13.70;99.90;;;;;;5105968;27;20646;-83
2023/07/27 04:34:09;;;;;;;13.88;7.50;;;13.70;99.90;;;;;;5103348;27;20045;-84
2023/07/27 04:36:35;;;;;;;9.45;6.53;;;13.70;99.90;;;;;;5106840;27;20038;-84
2023/07/27 04:39:00;;;;;;;10.73;6.65;;;13.70;99.90;;;;;;5084889;27;20079;-84
2023/07/27 04:41:26;;;;;;;11.43;6.53;;;13.80;99.90;;;;;;5110274;27;20487;-83
2023/07/27 04:43:52;;;;;;;12.00;6.72;;;13.80;99.90;;;;;;5093522;27;20039;-83
2023/07/27 04:46:17;;;;;;;10.30;6.88;;;13.80;99.90;;;;;;5107256;27;20569;-83
2023/07/27 04:48:43;;;;;;;11.30;6.57;;;13.80;99.90;;;;;;5093025;27;20125;-83
2023/07/27 04:51:08;;;;;;;11.57;6.95;;;13.90;99.90;;;;;;5103107;27;20036;-84
2023/07/27 04:53:34;;;;;;;11.65;7.30;;;13.90;99.90;;;;;;5099117;27;20123;-83
2023/07/27 04:56:00;;;;;;;12.32;7.35;;;13.90;99.90;;;;;;5083319;28;20486;-83
2023/07/27 04:58:25;;;;;;;9.80;6.38;;;13.90;99.90;;;;;;5106165;27;20056;-83
2023/07/27 05:00:55;;;;;;;11.63;7.13;;;13.90;99.90;;;;;;5086374;28;20570;-83
2023/07/27 05:03:21;;;;;;;11.27;6.85;;;13.90;99.90;;;;;;5080516;28;20046;-83
2023/07/27 05:05:47;;;;;;;10.13;6.78;;;13.90;99.90;;;;;;5099735;27;20113;-83
2023/07/27 05:08:12;;;;;;;11.48;6.53;;;13.90;99.90;;;;;;5090662;27;20047;-82
2023/07/27 05:10:41;;;;;;;10.85;6.47;;;13.90;99.90;;;;;;5103485;27;20027;-83
2023/07/27 05:13:07;;;;;;;10.15;6.75;;;14.00;99.90;;;;;;5095900;27;20109;-82
2023/07/27 05:15:34;;;;;;;12.80;6.07;;;14.00;99.90;;;;;;5103044;27;20043;-83
2023/07/27 05:18:00;;;;;;;11.27;7.05;;;14.00;99.90;;;;;;5106326;27;20138;-83
2023/07/27 05:20:26;;;;;;;10.27;5.90;;;14.10;99.90;;;;;;5086617;27;20034;-83
2023/07/27 05:22:54;;;;;;;9.35;6.18;;;14.10;99.90;;;;;;5082731;27;20181;-83
2023/07/27 05:25:20;;;;;;;10.68;6.07;;;14.00;99.90;;;;;;5084840;27;20111;-83
2023/07/27 05:27:46;;;;;;;11.57;6.55;;;14.00;99.90;;;;;;5112951;27;20125;-83
2023/07/27 05:30:11;;;;;;;9.73;6.15;;;14.10;99.90;;;;;;5100413;27;20537;-82
2023/07/27 05:32:37;;;;;;;8.32;6.10;;;14.10;99.90;;;;;;5100515;27;20044;-82
2023/07/27 05:35:03;;;;;;;10.10;6.20;;;14.00;99.90;;;;;;5076830;27;20032;-82
2023/07/27 05:37:29;;;;;;;9.48;6.13;;;14.00;99.90;;;;;;5106322;27;20043;-82
2023/07/27 05:39:55;;;;;;;10.02;6.43;;;14.10;99.90;;;;;;5097493;27;20471;-82
2023/07/27 05:42:20;;;;;;;10.50;6.13;;;14.10;99.90;;;;;;5105607;27;20061;-82
2023/07/27 05:44:46;;;;;;;13.02;7.00;;;14.20;99.90;;;;;;5091528;27;20337;-81
2023/07/27 05:47:13;;;;;;;9.48;6.03;;;14.20;99.90;;;;;;5094946;27;20042;-81
2023/07/27 05:49:39;;;;;;;10.93;5.88;;;14.20;99.90;;;;;;5094539;27;20482;-81
2023/07/27 05:52:07;;;;;;;10.32;6.00;;;14.20;99.90;;;;;;5093947;27;20053;-81
2023/07/27 05:54:33;;;;;;;13.95;6.43;;;14.30;99.90;;;;;;5095050;27;20141;-82
2023/07/27 05:56:59;;;;;;;9.90;6.18;;;14.30;99.90;;;;;;5096406;27;20134;-82
2023/07/27 05:59:24;;;;;;;11.77;6.20;;;14.40;99.90;;;;;;5119725;27;20054;-81
2023/07/27 06:01:50;;;;;;;10.77;7.13;;;14.50;99.90;;;;;;5106868;27;20662;-81
2023/07/27 06:04:16;;;;;;;11.00;6.80;;;14.60;99.90;;;;;;5109350;27;20045;-81
2023/07/27 06:06:45;;;;;;;12.10;6.30;;;14.50;99.90;;;;;;5116715;27;20039;-81
2023/07/27 06:09:10;;;;;;;11.45;6.07;;;14.60;99.90;;;;;;5110413;27;20046;-81
2023/07/27 06:11:37;;;;;;;9.43;5.75;;;14.70;99.90;;;;;;5086663;27;20039;-81
2023/07/27 06:14:03;;;;;;;9.57;5.82;;;14.80;99.90;;;;;;5094422;27;20045;-81
2023/07/27 06:16:28;;;;;;;9.55;6.10;;;14.90;99.90;;;;;;5104324;27;20074;-81
2023/07/27 06:18:54;;;;;;;9.55;5.90;;;15.00;99.90;;;;;;5084529;27;20047;-81
2023/07/27 06:21:20;;;;;;;11.30;6.43;;;15.00;99.90;;;;;;5092882;27;20512;-81
2023/07/27 06:23:45;;;;;;;8.82;5.57;;;15.20;99.90;;;;;;5104690;27;20050;-81
2023/07/27 06:26:11;;;;;;;7.47;5.10;;;15.20;99.90;;;;;;5082529;27;20035;-81
2023/07/27 06:28:37;;;;;;;9.98;5.65;;;15.50;99.90;;;;;;5090074;27;20054;-81
2023/07/27 06:31:02;;;;;;;8.75;5.53;;;15.70;99.90;;;;;;5086711;27;20067;-81
2023/07/27 06:33:28;;;;;;;8.88;5.57;;;15.80;99.90;;;;;;5093366;27;20492;-81
2023/07/27 06:35:55;;;;;;;7.63;4.78;;;15.80;99.90;;;;;;5085831;27;20382;-81
2023/07/27 06:38:20;;;;;;;9.40;5.13;;;15.70;99.90;;;;;;5131065;27;20119;-81
2023/07/27 06:40:46;;;;;;;8.05;5.10;;;15.70;99.90;;;;;;5103890;27;20355;-81
2023/07/27 06:43:12;;;;;;;8.07;4.85;;;15.80;99.90;;;;;;5128300;27;20052;-81
2023/07/27 06:45:38;;;;;;;6.75;4.53;;;15.80;99.90;;;;;;5109126;27;20050;-81
2023/07/27 06:48:04;;;;;;;6.68;4.85;;;15.60;99.90;;;;;;5087288;27;20084;-81
2023/07/27 06:50:30;;;;;;;7.38;4.97;;;15.50;99.90;;;;;;5099043;27;20040;-81
2023/07/27 06:52:56;;;;;;;7.25;4.80;;;15.60;99.90;;;;;;5083722;27;20221;-81
2023/07/27 06:55:21;;;;;;;7.97;5.30;;;15.60;99.90;;;;;;5099123;27;20286;-81
2023/07/27 06:57:47;;;;;;;11.18;5.22;;;15.70;99.90;;;;;;5107858;27;20035;-81
2023/07/27 07:00:13;;;;;;;9.60;5.32;;;15.70;99.90;;;;;;5093814;27;20074;-81
2023/07/27 07:02:39;;;;;;;7.07;4.68;;;15.90;99.90;;;;;;5098602;27;20622;-81
2023/07/27 07:05:05;;;;;;;7.20;4.90;;;16.00;99.90;;;;;;5109932;27;20444;-81
2023/07/27 07:07:31;;;;;;;6.53;4.85;;;16.30;99.90;;;;;;5109745;27;20119;-81
2023/07/27 07:09:56;;;;;;;6.82;4.63;;;16.40;99.90;;;;;;5091953;27;20534;-81
2023/07/27 07:12:22;;;;;;;6.68;4.40;;;16.50;99.90;;;;;;5103090;27;20039;-81
2023/07/27 07:14:48;;;;;;;6.55;4.47;;;16.50;99.90;;;;;;5115050;27;20042;-82
2023/07/27 07:17:13;;;;;;;5.85;4.30;;;16.70;99.90;;;;;;5117324;27;20305;-81
2023/07/27 07:19:42;;;;;;;5.32;3.83;;;16.50;99.90;;;;;;5103739;27;20064;-81
2023/07/27 07:22:08;;;;;;;6.47;3.88;;;16.40;99.90;;;;;;5105467;27;20121;-81
2023/07/27 07:24:34;;;;;;;6.45;4.53;;;16.50;99.90;;;;;;5126286;27;20133;-81
2023/07/27 07:26:59;;;;;;;5.57;4.05;;;16.20;99.90;;;;;;5086781;27;20031;-81
2023/07/27 07:29:26;;;;;;;7.40;4.45;;;16.10;99.90;;;;;;5114942;27;20046;-82
2023/07/27 07:31:52;;;;;;;6.10;4.80;;;16.20;99.90;;;;;;5083929;27;20042;-81
2023/07/27 07:34:18;;;;;;;4.95;3.70;;;16.10;99.90;;;;;;5103984;27;20034;-81
2023/07/27 07:36:44;;;;;;;6.93;4.40;;;16.20;99.90;;;;;;5084356;27;20176;-81
2023/07/27 07:39:09;;;;;;;5.13;4.05;;;16.10;99.90;;;;;;5103555;27;20429;-81
2023/07/27 07:41:35;;;;;;;6.75;4.00;;;16.20;99.90;;;;;;5104312;27;20043;-81
2023/07/27 07:44:01;;;;;;;6.50;4.80;;;16.20;99.90;;;;;;5093967;27;20124;-81
2023/07/27 07:46:26;;;;;;;7.20;5.00;;;16.30;99.90;;;;;;5081713;27;20036;-81
2023/07/27 07:48:52;;;;;;;5.68;4.18;;;16.40;99.90;;;;;;5085789;27;20046;-81
2023/07/27 07:51:18;;;;;;;6.82;4.20;;;16.40;99.90;;;;;;5105710;27;20035;-81
2023/07/27 07:53:43;;;;;;;7.28;4.30;;;16.50;99.90;;;;;;5105133;27;20104;-81
2023/07/27 07:56:14;;;;;;;5.57;3.97;;;16.70;99.90;;;;;;5105429;27;20083;-82
2023/07/27 07:58:39;;;;;;;5.90;4.20;;;16.80;99.90;;;;;;5106182;27;20034;-82
2023/07/27 08:01:06;;;;;;;6.07;3.83;;;16.80;99.90;;;;;;5112257;27;20090;-82
2023/07/27 08:03:31;;;;;;;4.80;3.75;;;17.00;99.90;;;;;;5119527;27;20065;-81
2023/07/27 08:05:57;;;;;;;6.35;4.18;;;17.10;99.90;;;;;;5081310;27;20498;-81
2023/07/27 08:08:23;;;;;;;4.68;3.83;;;17.10;99.90;;;;;;5111487;27;20080;-81
2023/07/27 08:10:49;;;;;;;5.13;4.10;;;17.20;99.90;;;;;;5096258;27;20035;-82
2023/07/27 08:13:15;;;;;;;4.32;3.25;;;17.20;99.90;;;;;;5091949;27;20034;-81
2023/07/27 08:15:50;;;;;;;4.22;3.13;;;17.10;99.90;;;;;;5107316;27;20405;-82
2023/07/27 08:18:16;;;;;;;4.20;3.10;;;17.10;99.90;;;;;;5104626;27;20046;-82
2023/07/27 08:20:41;;;;;;;4.45;3.15;;;16.90;99.90;;;;;;5091385;27;20035;-81
2023/07/27 08:23:07;;;;;;;4.82;3.10;;;16.80;99.90;;;;;;5091215;27;20027;-81
2023/07/27 08:25:37;;;;;;;3.10;2.70;;;16.60;99.90;;;;;;5089486;27;20027;-82
2023/07/27 08:28:03;;;;;;;4.43;2.95;;;16.70;99.90;;;;;;5123994;27;20091;-81
2023/07/27 08:30:28;;;;;;;3.83;3.00;;;16.80;99.90;;;;;;5126858;27;20390;-82
2023/07/27 08:32:54;;;;;;;4.65;3.28;;;16.70;99.90;;;;;;5117159;27;20027;-82
2023/07/27 08:35:20;;;;;;;4.32;3.45;;;16.80;99.90;;;;;;5083912;27;20039;-81
2023/07/27 08:37:48;;;;;;;3.50;3.00;;;16.80;99.90;;;;;;5129080;27;20045;-81
2023/07/27 08:40:14;;;;;;;4.70;3.60;;;16.90;99.90;;;;;;5100530;27;20098;-81
2023/07/27 08:42:43;;;;;;;4.07;3.35;;;16.90;99.90;;;;;;5110559;27;20122;-82
2023/07/27 08:45:12;;;;;;;4.15;3.33;;;16.90;99.90;;;;;;5090374;27;20074;-82
2023/07/27 08:47:41;;;;;;;5.97;3.40;;;16.90;99.90;;;;;;5101688;27;20047;-82
2023/07/27 08:50:11;;;;;;;3.92;3.28;;;16.80;99.90;;;;;;5105880;27;20049;-81
2023/07/27 08:52:37;;;;;;;4.10;3.42;;;16.80;99.90;;;;;;5095498;27;20505;-81
2023/07/27 08:55:03;;;;;;;3.75;3.13;;;16.80;99.90;;;;;;5101877;27;20100;-82
2023/07/27 08:57:28;;;;;;;5.32;3.13;;;16.70;99.90;;;;;;5102770;27;20572;-81
2023/07/27 08:59:55;;;;;;;3.95;3.20;;;16.80;99.90;;;;;;5107755;27;20118;-82
2023/07/27 09:02:20;;;;;;;3.80;3.25;;;16.90;99.90;;;;;;5096785;27;20031;-81
2023/07/27 09:04:46;;;;;;;4.10;3.30;;;17.00;99.90;;;;;;5087579;27;20532;-82
2023/07/27 09:07:12;;;;;;;4.68;3.25;;;17.00;99.90;;;;;;5085028;27;20122;-82
2023/07/27 09:09:37;;;;;;;4.70;3.63;;;17.10;99.90;;;;;;5111143;27;20281;-82
2023/07/27 09:12:05;;;;;;;4.25;3.35;;;17.40;99.90;;;;;;5093458;27;20043;-82
2023/07/27 09:14:38;;;;;;;4.72;3.30;;;17.40;99.90;;;;;;5099229;27;20045;-83
2023/07/27 09:17:04;;;;;;;5.07;3.15;;;17.60;99.90;;;;;;5099495;27;20541;-84
2023/07/27 09:19:36;;;;;;;4.03;3.53;;;17.90;99.90;;;;;;5130242;27;20497;-83
2023/07/27 09:22:02;;;;;;;3.85;3.33;;;17.90;99.90;;;;;;5115650;27;20035;-83
2023/07/27 09:24:34;;;;;;;3.40;3.00;;;17.70;99.90;;;;;;5090502;27;20110;-83
2023/07/27 09:27:01;;;;;;;4.30;3.20;;;17.80;99.90;;;;;;5092031;27;20196;-83
2023/07/27 09:29:28;;;;;;;5.53;3.72;;;18.10;99.90;;;;;;5121348;27;20138;-84
2023/07/27 09:31:59;;;;;;;3.33;3.03;;;18.00;99.90;;;;;;5088301;27;20482;-84
2023/07/27 09:34:29;;;;;;;3.40;3.03;;;18.20;99.90;;;;;;5103588;27;20232;-83
2023/07/27 09:37:08;;;;;;;3.60;3.30;;;18.30;99.90;;;;;;5087929;27;20527;-83
2023/07/27 09:39:35;;;;;;;2.90;2.60;;;18.60;99.90;;;;;;5092568;27;20030;-83
2023/07/27 09:42:01;;;;;;;3.75;3.05;;;18.30;99.90;;;;;;5100269;27;20034;-83
2023/07/27 09:44:27;;;;;;;2.65;2.45;;;18.40;99.90;;;;;;5129955;27;20051;-82
2023/07/27 09:46:52;;;;;;;2.75;2.42;;;18.20;99.90;;;;;;5083381;27;20611;-82
2023/07/27 09:49:19;;;;;;;2.40;2.20;;;18.20;99.90;;;;;;5096431;27;20084;-82
2023/07/27 09:51:46;;;;;;;2.42;2.22;;;18.40;99.90;;;;;;5089856;27;20119;-83
2023/07/27 09:54:13;;;;;;;2.88;2.58;;;18.00;99.90;;;;;;5092242;27;20058;-83
2023/07/27 09:56:38;;;;;;;2.30;2.10;;;18.10;99.90;;;;;;5088037;27;20031;-82
2023/07/27 09:59:05;;;;;;;2.17;1.98;;;18.10;99.90;;;;;;5091964;27;20461;-83
2023/07/27 10:01:33;;;;;;;2.33;2.13;;;18.20;99.90;;;;;;5099548;27;20070;-83
2023/07/27 10:03:59;;;;;;;2.72;2.22;;;18.10;99.90;;;;;;5105749;27;20276;-83
2023/07/27 10:06:26;;;;;;;2.30;2.10;;;18.20;99.90;;;;;;5110691;27;20233;-83
2023/07/27 10:08:53;;;;;;;2.60;2.40;;;18.10;99.90;;;;;;5092846;27;20083;-82
2023/07/27 10:11:45;;;;;;;2.72;2.40;;;18.40;99.90;;;;;;5104636;27;20065;-83
2023/07/27 10:14:19;;;;;;;2.63;2.30;;;18.10;99.90;;;;;;5111509;27;20081;-82
2023/07/27 10:16:58;;;;;;;2.88;2.60;;;18.10;99.90;;;;;;5091662;27;20606;-82
2023/07/27 10:19:25;;;;;;;2.90;2.20;;;18.10;99.90;;;;;;5085578;27;20080;-82
2023/07/27 10:21:51;;;;;;;2.63;2.40;;;18.10;99.90;;;;;;5090471;27;20057;-83
2023/07/27 10:24:23;;;;;;;2.80;2.50;;;18.20;99.90;;;;;;5112921;27;20035;-82
2023/07/27 10:26:51;;;;;;;3.25;2.95;;;18.20;99.90;;;;;;5118950;27;20197;-82
2023/07/27 10:29:22;;;;;;;3.15;2.85;;;18.00;99.90;;;;;;5093450;27;20096;-82
2023/07/27 10:32:06;;;;;;;2.70;2.50;;;17.90;99.90;;;;;;5105748;27;20112;-82
2023/07/27 10:34:34;;;;;;;3.03;2.72;;;18.00;99.90;;;;;;5098561;27;20135;-82
2023/07/27 10:37:01;;;;;;;3.20;2.90;;;18.10;99.90;;;;;;5076277;27;20055;-82
2023/07/27 10:39:35;;;;;;;3.40;3.10;;;18.20;99.90;;;;;;5093222;27;20385;-81
2023/07/27 10:42:06;;;;;;;3.88;3.45;;;18.10;99.90;;;;;;5119495;27;20138;-82
2023/07/27 10:44:48;;;;;;;3.50;3.20;;;18.10;99.90;;;;;;5100926;27;20142;-82
2023/07/27 10:47:19;;;;;;;3.80;3.50;;;18.30;99.90;;;;;;5106101;27;20062;-82
2023/07/27 10:49:47;;;;;;;4.00;3.67;;;18.40;99.90;;;;;;5103135;27;20536;-82
2023/07/27 10:52:18;;;;;;;3.58;3.28;;;18.50;99.90;;;;;;5092621;27;20039;-82
2023/07/27 10:54:45;;;;;;;4.82;3.63;;;18.60;99.90;;;;;;5115799;27;20035;-82
2023/07/27 10:57:12;;;;;;;4.28;3.55;;;18.70;99.90;;;;;;5108185;27;20401;-82
2023/07/27 10:59:44;;;;;;;3.60;3.30;;;18.90;99.90;;;;;;5107398;27;20103;-82
2023/07/27 11:02:15;;;;;;;3.63;3.33;;;18.80;99.90;;;;;;5086495;27;20162;-82
2023/07/27 11:04:41;;;;;;;4.03;3.65;;;18.70;99.90;;;;;;5087298;27;20039;-82
2023/07/27 11:07:10;;;;;;;3.72;3.42;;;18.50;99.90;;;;;;5097002;27;20066;-82
2023/07/27 11:09:36;;;;;;;3.53;3.15;;;18.50;99.90;;;;;;5089624;27;20044;-82
2023/07/27 11:12:02;;;;;;;4.70;3.72;;;18.50;99.90;;;;;;5108317;27;20043;-82
2023/07/27 11:14:28;;;;;;;4.25;3.47;;;18.50;99.90;;;;;;5112196;27;20047;-82
2023/07/27 11:16:54;;;;;;;5.25;4.00;;;18.50;99.90;;;;;;5115821;27;20460;-82
2023/07/27 11:19:21;;;;;;;4.20;3.60;;;18.50;99.90;;;;;;5098791;28;20044;-82
2023/07/27 11:21:49;;;;;;;4.35;3.95;;;18.40;99.90;;;;;;5124451;27;20407;-82
2023/07/27 11:24:16;;;;;;;4.25;3.85;;;18.20;99.90;;;;;;5095566;27;20510;-82
2023/07/27 11:26:42;;;;;;;6.18;4.10;;;18.30;99.90;;;;;;5105703;27;20035;-83
2023/07/27 11:29:09;;;;;;;4.80;3.88;;;18.50;99.90;;;;;;5095836;27;20048;-84
2023/07/27 11:31:35;;;;;;;4.45;3.63;;;18.60;99.90;;;;;;5116488;27;20466;-83
2023/07/27 11:34:02;;;;;;;4.55;3.90;;;18.50;99.90;;;;;;5090334;27;20039;-83
2023/07/27 11:36:32;;;;;;;4.00;3.60;;;18.80;99.90;;;;;;5085744;27;20210;-83
2023/07/27 11:38:59;;;;;;;4.07;3.67;;;18.80;99.90;;;;;;5096603;27;20127;-83
2023/07/27 11:41:30;;;;;;;4.55;4.13;;;19.00;99.90;;;;;;5119861;27;20027;-83
2023/07/27 11:43:57;;;;;;;6.25;3.80;;;19.10;99.90;;;;;;5126619;27;20051;-83
2023/07/27 11:46:45;;;;;;;4.00;3.60;;;19.40;99.90;;;;;;5096847;27;20054;-83
2023/07/27 11:49:11;;;;;;;3.70;3.40;;;19.40;99.90;;;;;;5080884;27;20127;-83
2023/07/27 11:51:41;;;;;;;4.05;3.65;;;19.40;99.90;;;;;;5104369;27;20123;-83
2023/07/27 11:54:09;;;;;;;3.28;2.97;;;19.20;99.90;;;;;;5098526;27;20154;-83
2023/07/27 11:56:36;;;;;;;3.67;3.22;;;19.40;99.90;;;;;;5076781;27;20135;-83
2023/07/27 11:59:03;;;;;;;4.00;3.35;;;19.40;99.90;;;;;;5106202;27;20151;-83
2023/07/27 12:01:28;;;;;;;4.25;3.40;;;19.30;99.90;;;;;;5121537;27;20127;-83
2023/07/27 12:03:54;;;;;;;3.65;3.22;;;19.40;99.90;;;;;;5089673;27;20118;-83
2023/07/27 12:06:28;;;;;;;5.05;3.75;;;19.50;99.90;;;;;;5099587;27;20105;-83
2023/07/27 12:08:55;;;;;;;3.22;2.90;;;19.60;99.90;;;;;;5122079;27;20051;-84
2023/07/27 12:11:26;;;;;;;4.63;3.00;;;19.60;99.90;;;;;;5092562;27;20483;-83
2023/07/27 12:13:52;;;;;;;3.25;2.92;;;19.70;99.90;;;;;;5099879;27;20370;-83
2023/07/27 12:16:17;;;;;;;3.05;2.75;;;19.70;99.90;;;;;;5112635;27;20066;-83
2023/07/27 12:18:45;;;;;;;3.50;3.17;;;20.00;99.90;;;;;;5089800;27;20176;-83
2023/07/27 12:21:11;;;;;;;3.72;3.40;;;20.00;99.90;;;;;;5107557;27;20040;-83
2023/07/27 12:23:37;;;;;;;4.15;2.90;;;20.00;99.90;;;;;;5108764;27;20075;-83
2023/07/27 12:26:03;;;;;;;3.72;2.70;;;20.10;99.90;;;;;;5091098;27;20031;-83
2023/07/27 12:28:31;;;;;;;2.75;2.53;;;20.00;99.90;;;;;;5131222;27;20039;-83
2023/07/27 12:30:57;;;;;;;3.85;2.50;;;19.90;99.90;;;;;;5133713;27;20126;-83
2023/07/27 12:33:26;;;;;;;2.72;2.53;;;20.20;99.90;;;;;;5112630;27;20208;-84
2023/07/27 12:35:52;;;;;;;2.17;1.67;;;20.50;99.90;;;;;;5099566;27;20068;-84
2023/07/27 12:38:19;;;;;;;1.90;1.55;;;20.70;99.90;;;;;;5104479;27;20035;-83
2023/07/27 12:40:45;;;;;;;1.85;1.67;;;20.80;99.90;;;;;;5121410;27;20419;-84
2023/07/27 12:43:12;;;;;;;2.53;2.03;;;20.80;99.90;;;;;;5109651;27;20115;-83
2023/07/27 12:45:38;;;;;;;2.00;1.80;;;20.80;99.90;;;;;;5104530;27;20164;-84
2023/07/27 12:48:05;;;;;;;2.28;1.65;;;20.60;99.90;;;;;;5103600;27;20498;-84